Haslingfield, United Kingdom
Current Conditions -  °F | °C
As of 9:20 AM on Thursday 27 Nov 2014 (Local Time) from EGSC Reporting Station
Haze Haze  
Wind Chill: 50°   Ceiling: 200
Heat Index: 50°   Visibility: 2.5mi
Dew Point: 50°   Wind: 8mph
Humidity: 100%   Direction: 140°SE
Pressure: 29.62"   Gusts: NA
Location:  52.15°N, 0.06°E
Report Text: EGSC 270920Z 14007KT 4000 BR BKN002 10/10 Q1003
Loading
Personal Weather Stations






























Interactive Weather Map New forecast layout! Learn more

10-Day Weather Forecast

Advertisements
Track Severe Weather on mobile